Time;durP1;ratioP1;P1;durP2;ratioP2;P2;SDS_P1;SDS_P2;PMS_P1;PMS_P2;Temp;Humidity;BMP_temperature;BMP_pressure;BME280_temperature;BME280_humidity;BME280_pressure;Samples;Min_cycle;Max_cycle;Signal;HPM_P1;HPM_P2
2022/08/26 00:01:37;;;;;;;64.17;57.50;;;24.60;1.00;;;;;;6252833;23;20894;-84
2022/08/26 00:04:03;;;;;;;60.37;54.27;;;24.50;1.00;;;;;;6252593;22;20406;-84
2022/08/26 00:06:31;;;;;;;62.63;56.07;;;24.50;1.00;;;;;;6253257;22;20394;-84
2022/08/26 00:08:56;;;;;;;62.70;56.07;;;24.40;1.00;;;;;;6228091;23;20187;-84
2022/08/26 00:11:23;;;;;;;59.07;52.77;;;24.30;1.00;;;;;;6254335;23;20716;-85
2022/08/26 00:13:51;;;;;;;54.53;49.00;;;24.30;5.20;;;;;;6253812;23;20175;-86
2022/08/26 00:16:17;;;;;;;63.03;56.53;;;24.30;6.50;;;;;;6252284;23;20410;-84
2022/08/26 00:18:42;;;;;;;63.00;56.50;;;24.30;58.70;;;;;;6253073;23;20408;-84
2022/08/26 00:21:09;;;;;;;64.03;57.43;;;24.20;99.90;;;;;;6227915;23;20159;-84
2022/08/26 00:23:35;;;;;;;61.57;55.53;;;24.20;99.90;;;;;;6253504;23;20189;-84
2022/08/26 00:26:02;;;;;;;61.00;55.00;;;24.20;99.90;;;;;;6253687;23;20381;-85
2022/08/26 00:28:28;;;;;;;61.63;55.53;;;24.10;99.90;;;;;;6252351;23;20428;-85
2022/08/26 00:30:54;;;;;;;59.17;53.43;;;24.00;99.90;;;;;;6253324;23;20404;-84
2022/08/26 00:33:20;;;;;;;65.50;54.77;;;24.10;99.90;;;;;;6252451;23;20846;-85
2022/08/26 00:35:46;;;;;;;58.03;52.23;;;24.00;99.90;;;;;;6252654;23;20156;-84
2022/08/26 00:38:13;;;;;;;55.53;49.93;;;24.00;99.90;;;;;;6224643;23;20206;-84
2022/08/26 00:40:46;;;;;;;56.90;51.30;;;24.00;1.00;;;;;;6223014;23;20464;-84
2022/08/26 00:43:11;;;;;;;56.40;50.77;;;23.90;1.00;;;;;;6250865;22;20392;-84
2022/08/26 00:45:53;;;;;;;53.90;48.30;;;23.90;1.00;;;;;;6248280;23;20414;-84
2022/08/26 00:48:23;;;;;;;51.97;46.77;;;23.80;1.00;;;;;;6247473;23;20513;-84
2022/08/26 00:51:13;;;;;;;55.03;48.10;;;23.70;14.90;;;;;;6248629;23;20381;-85
2022/08/26 00:53:50;;;;;;;51.27;46.10;;;23.70;99.90;;;;;;6248468;23;20460;-84
2022/08/26 00:56:47;;;;;;;53.13;47.50;;;23.60;99.90;;;;;;6248646;23;20365;-84
2022/08/26 00:59:15;;;;;;;49.43;44.43;;;23.60;99.90;;;;;;6220200;23;20884;-85
2022/08/26 01:01:43;;;;;;;51.83;46.57;;;23.60;99.90;;;;;;6247337;23;20464;-83
2022/08/26 01:04:10;;;;;;;50.67;45.07;;;23.50;99.90;;;;;;6250556;22;20425;-84
2022/08/26 01:06:36;;;;;;;49.97;44.57;;;23.50;99.90;;;;;;6248956;23;20393;-85
2022/08/26 01:09:02;;;;;;;47.60;42.73;;;23.50;1.00;;;;;;6248839;23;20425;-84
2022/08/26 01:11:28;;;;;;;48.07;43.43;;;23.50;1.00;;;;;;6250668;23;20150;-84
2022/08/26 01:13:56;;;;;;;49.03;42.07;;;23.50;1.00;;;;;;6249480;23;20410;-85
2022/08/26 01:16:24;;;;;;;48.67;43.77;;;23.50;1.00;;;;;;6249682;22;20390;-84
2022/08/26 01:18:53;;;;;;;48.33;43.30;;;23.40;1.00;;;;;;6222210;23;20394;-84
2022/08/26 01:21:28;;;;;;;49.57;42.57;;;23.40;1.00;;;;;;6248673;22;20419;-84
2022/08/26 01:23:56;;;;;;;46.90;41.83;;;23.40;99.90;;;;;;6222284;23;20408;-85
2022/08/26 01:26:25;;;;;;;50.27;44.97;;;23.40;99.90;;;;;;6247613;22;20475;-84
2022/08/26 01:28:55;;;;;;;49.80;44.53;;;23.30;99.90;;;;;;6248917;23;20511;-84
2022/08/26 01:31:23;;;;;;;46.97;42.00;;;23.30;99.90;;;;;;6249371;23;20374;-84
2022/08/26 01:34:10;;;;;;;46.40;41.30;;;23.20;1.00;;;;;;6248181;22;20427;-84
2022/08/26 01:36:38;;;;;;;46.73;41.60;;;23.20;1.00;;;;;;6221836;23;20489;-85
2022/08/26 01:39:04;;;;;;;45.73;40.70;;;23.20;49.00;;;;;;6250472;23;20374;-85
2022/08/26 01:41:31;;;;;;;45.37;40.57;;;23.10;51.70;;;;;;6251901;23;20388;-84
2022/08/26 01:43:57;;;;;;;42.60;38.10;;;23.10;99.90;;;;;;6247624;22;20429;-84
2022/08/26 01:46:25;;;;;;;38.93;34.83;;;23.10;99.90;;;;;;6249800;23;20444;-84
2022/08/26 01:48:53;;;;;;;45.30;39.30;;;23.10;99.90;;;;;;6247351;23;20428;-84
2022/08/26 01:51:20;;;;;;;44.37;38.83;;;23.10;99.90;;;;;;6224488;23;20842;-84
2022/08/26 01:53:46;;;;;;;42.53;38.20;;;23.10;99.90;;;;;;6248434;23;20401;-84
2022/08/26 01:56:13;;;;;;;42.07;37.50;;;23.10;99.90;;;;;;6248284;22;20704;-84
2022/08/26 01:58:46;;;;;;;42.00;36.67;;;23.10;1.00;;;;;;6248940;22;20188;-85
2022/08/26 02:01:12;;;;;;;39.57;34.93;;;23.00;1.00;;;;;;6250621;23;20361;-84
2022/08/26 02:04:00;;;;;;;41.27;36.70;;;23.00;1.00;;;;;;6248652;22;20416;-84
2022/08/26 02:06:26;;;;;;;40.93;35.47;;;23.00;99.90;;;;;;6222711;23;20757;-84
2022/08/26 02:08:55;;;;;;;39.20;34.80;;;23.00;1.30;;;;;;6248521;23;20446;-85
2022/08/26 02:11:20;;;;;;;37.63;33.83;;;23.00;57.90;;;;;;6248796;22;20160;-84
2022/08/26 02:13:50;;;;;;;38.03;32.70;;;22.90;99.90;;;;;;6247858;22;20405;-84
2022/08/26 02:16:20;;;;;;;39.67;33.23;;;22.90;99.90;;;;;;6248011;23;20216;-84
2022/08/26 02:18:47;;;;;;;38.97;33.27;;;22.90;99.90;;;;;;6247921;22;20393;-84
2022/08/26 02:21:13;;;;;;;41.53;32.70;;;22.90;99.90;;;;;;6248338;23;20511;-84
2022/08/26 02:23:39;;;;;;;38.63;33.53;;;22.90;99.90;;;;;;6247818;22;20402;-84
2022/08/26 02:26:13;;;;;;;38.50;32.07;;;22.80;1.00;;;;;;6247656;23;20161;-84
2022/08/26 02:28:49;;;;;;;38.00;31.40;;;22.80;1.00;;;;;;6249572;23;20422;-84
2022/08/26 02:31:15;;;;;;;36.80;32.73;;;22.80;1.00;;;;;;6249950;23;20358;-84
2022/08/26 02:33:40;;;;;;;35.50;31.83;;;22.70;49.90;;;;;;6249666;22;20443;-83
2022/08/26 02:36:06;;;;;;;35.97;31.63;;;22.70;46.40;;;;;;6248257;23;20159;-84
2022/08/26 02:38:33;;;;;;;33.80;29.13;;;22.70;99.90;;;;;;6247960;22;20163;-84
2022/08/26 02:40:58;;;;;;;35.73;29.30;;;22.70;54.70;;;;;;6247944;23;20391;-84
2022/08/26 02:43:24;;;;;;;37.90;28.50;;;22.70;99.90;;;;;;6247448;22;20408;-84
2022/08/26 02:45:49;;;;;;;33.73;28.97;;;22.70;99.90;;;;;;6222948;23;20233;-84
2022/08/26 02:48:17;;;;;;;31.80;28.30;;;22.70;91.50;;;;;;6248441;23;20177;-84
2022/08/26 02:50:43;;;;;;;35.73;30.27;;;22.70;26.70;;;;;;6222858;23;20607;-85
2022/08/26 02:53:11;;;;;;;30.30;26.47;;;22.70;1.00;;;;;;6249017;22;20467;-84
2022/08/26 02:55:37;;;;;;;29.37;25.00;;;22.70;99.90;;;;;;6249456;23;20376;-84
2022/08/26 02:58:03;;;;;;;31.97;27.10;;;22.70;8.60;;;;;;6247506;22;20475;-84
2022/08/26 03:00:30;;;;;;;27.97;25.13;;;22.70;1.00;;;;;;6249727;23;20369;-84
2022/08/26 03:02:56;;;;;;;30.47;24.43;;;22.70;1.00;;;;;;6247410;22;20428;-84
2022/08/26 03:05:22;;;;;;;25.97;23.17;;;22.80;1.00;;;;;;6249013;22;20480;-84
2022/08/26 03:07:48;;;;;;;30.47;26.63;;;22.70;1.00;;;;;;6246680;22;20381;-84
2022/08/26 03:10:15;;;;;;;31.37;24.50;;;22.70;1.00;;;;;;6249890;23;20186;-84
2022/08/26 03:12:41;;;;;;;31.97;24.77;;;22.70;1.00;;;;;;6248974;22;20376;-84
2022/08/26 03:15:08;;;;;;;34.70;24.23;;;22.70;1.00;;;;;;6248652;23;20381;-84
2022/08/26 03:17:34;;;;;;;24.00;21.47;;;22.70;1.00;;;;;;6221475;23;20420;-84
2022/08/26 03:20:00;;;;;;;25.70;21.50;;;22.60;1.00;;;;;;6247253;22;20714;-84
2022/08/26 03:22:26;;;;;;;25.37;22.47;;;22.60;35.20;;;;;;6247961;22;20167;-84
2022/08/26 03:24:52;;;;;;;24.43;21.97;;;22.60;77.50;;;;;;6248021;22;20408;-84
2022/08/26 03:27:18;;;;;;;24.03;21.13;;;22.60;74.50;;;;;;6247277;22;20167;-84
2022/08/26 03:32:28;;;;;;;25.37;21.63;;;22.60;99.90;;;;;;6249934;23;20356;-84
2022/08/26 03:34:54;;;;;;;21.60;19.40;;;22.50;99.90;;;;;;6249238;22;20499;-84
2022/08/26 03:37:20;;;;;;;25.23;20.30;;;22.50;99.90;;;;;;6247034;22;20160;-84
2022/08/26 03:39:46;;;;;;;24.70;19.33;;;22.50;1.00;;;;;;6249083;23;20835;-84
2022/08/26 03:42:11;;;;;;;21.90;19.37;;;22.40;1.00;;;;;;6248659;22;20394;-84
2022/08/26 03:44:37;;;;;;;23.90;20.07;;;22.40;1.00;;;;;;6248433;22;20427;-84
2022/08/26 03:47:04;;;;;;;20.50;18.20;;;22.40;1.00;;;;;;6247000;22;20161;-84
2022/08/26 03:49:31;;;;;;;19.27;17.27;;;22.40;1.00;;;;;;6249576;23;20177;-84
2022/08/26 03:51:56;;;;;;;18.67;16.60;;;22.40;1.00;;;;;;6249609;23;20372;-85
2022/08/26 03:54:22;;;;;;;19.30;16.10;;;22.40;1.00;;;;;;6249925;22;20722;-84
2022/08/26 03:56:47;;;;;;;19.07;15.93;;;22.50;99.90;;;;;;6222956;23;20151;-84
2022/08/26 03:59:13;;;;;;;18.03;15.20;;;22.50;99.90;;;;;;6250379;22;20160;-85
2022/08/26 04:01:38;;;;;;;19.60;15.83;;;22.50;99.90;;;;;;6250571;23;20665;-84
2022/08/26 04:04:04;;;;;;;16.93;14.87;;;22.50;99.90;;;;;;6222967;23;20190;-84
2022/08/26 04:06:37;;;;;;;18.07;15.20;;;22.50;99.90;;;;;;6248499;22;20156;-84
2022/08/26 04:09:07;;;;;;;16.57;14.90;;;22.50;99.90;;;;;;6248864;23;20187;-84
2022/08/26 04:11:34;;;;;;;17.73;14.63;;;22.50;99.90;;;;;;6249968;23;20887;-85
2022/08/26 04:14:03;;;;;;;16.00;13.93;;;22.40;99.90;;;;;;6249175;23;20410;-84
2022/08/26 04:16:29;;;;;;;15.30;13.80;;;22.40;99.90;;;;;;6250454;23;20444;-84
2022/08/26 04:18:56;;;;;;;14.87;13.37;;;22.40;99.90;;;;;;6248916;22;20909;-85
2022/08/26 04:21:22;;;;;;;16.07;13.30;;;22.40;99.90;;;;;;6250230;23;20873;-84
2022/08/26 04:23:48;;;;;;;17.87;13.50;;;22.30;99.90;;;;;;6249989;22;20422;-84
2022/08/26 04:26:15;;;;;;;19.63;12.90;;;22.30;1.00;;;;;;6248066;22;20380;-84
2022/08/26 04:28:41;;;;;;;17.03;13.57;;;22.30;1.00;;;;;;6250507;23;20430;-84
2022/08/26 04:31:11;;;;;;;18.67;13.07;;;22.30;1.00;;;;;;6250706;23;20775;-85
2022/08/26 04:33:37;;;;;;;16.87;13.90;;;22.30;99.90;;;;;;6224702;23;20172;-84
2022/08/26 04:36:04;;;;;;;17.53;13.10;;;22.30;1.00;;;;;;6248962;23;20395;-84
2022/08/26 04:38:30;;;;;;;13.03;11.67;;;22.30;1.00;;;;;;6250185;23;20157;-84
2022/08/26 04:40:56;;;;;;;13.67;12.10;;;22.30;99.90;;;;;;6223132;23;20389;-84
2022/08/26 04:43:24;;;;;;;21.70;10.40;;;22.30;99.90;;;;;;6249736;22;20430;-84
2022/08/26 04:45:50;;;;;;;13.90;10.90;;;22.30;99.90;;;;;;6248824;23;20236;-84
2022/08/26 04:48:15;;;;;;;12.00;10.80;;;22.30;99.90;;;;;;6249831;23;20376;-85
2022/08/26 04:50:41;;;;;;;16.47;10.70;;;22.30;99.90;;;;;;6251450;23;20146;-84
2022/08/26 04:53:06;;;;;;;13.90;10.20;;;22.30;99.90;;;;;;6225327;23;20172;-85
2022/08/26 04:55:32;;;;;;;14.43;10.20;;;22.30;99.90;;;;;;6224460;23;20216;-84
2022/08/26 04:57:57;;;;;;;10.80;9.20;;;22.30;99.90;;;;;;6250495;23;20169;-84
2022/08/26 05:00:23;;;;;;;14.93;9.90;;;22.30;1.00;;;;;;6250970;23;20156;-84
2022/08/26 05:02:49;;;;;;;15.17;9.73;;;22.30;99.90;;;;;;6225135;22;20168;-84
2022/08/26 05:05:14;;;;;;;18.83;9.60;;;22.30;1.00;;;;;;6224706;23;20164;-84
2022/08/26 05:07:40;;;;;;;12.17;8.47;;;22.30;1.00;;;;;;6223388;23;20167;-84
2022/08/26 05:10:06;;;;;;;12.60;9.97;;;22.30;1.00;;;;;;6224988;23;20176;-84
2022/08/26 05:12:32;;;;;;;14.67;8.63;;;22.30;99.90;;;;;;6251856;22;20159;-84
2022/08/26 05:14:58;;;;;;;12.17;8.87;;;22.40;99.90;;;;;;6250578;23;20372;-85
2022/08/26 05:17:26;;;;;;;13.80;9.37;;;22.40;99.90;;;;;;6222489;23;20156;-84
2022/08/26 05:19:51;;;;;;;12.87;9.43;;;22.50;91.10;;;;;;6250224;23;20381;-84
2022/08/26 05:22:17;;;;;;;14.60;9.00;;;22.50;1.00;;;;;;6222768;23;20384;-85
2022/08/26 05:24:42;;;;;;;17.07;8.80;;;22.50;1.00;;;;;;6223678;23;20713;-84
2022/08/26 05:27:08;;;;;;;10.33;8.63;;;22.60;1.00;;;;;;6248821;23;20573;-84
2022/08/26 05:29:34;;;;;;;10.43;8.80;;;22.60;1.00;;;;;;6222005;23;20188;-85
2022/08/26 05:32:00;;;;;;;14.23;8.50;;;22.60;99.90;;;;;;6223444;23;20380;-84
2022/08/26 05:34:26;;;;;;;12.60;9.20;;;22.60;99.90;;;;;;6252631;22;20173;-85
2022/08/26 05:36:52;;;;;;;12.50;8.57;;;22.60;1.00;;;;;;6252406;23;20371;-85
2022/08/26 05:39:18;;;;;;;15.00;8.80;;;22.60;1.00;;;;;;6254025;23;20718;-86
2022/08/26 05:41:44;;;;;;;16.97;10.00;;;22.60;1.00;;;;;;6254098;23;20150;-85
2022/08/26 05:44:13;;;;;;;10.70;9.17;;;22.60;1.00;;;;;;6227775;23;20428;-85
2022/08/26 05:46:39;;;;;;;16.13;8.53;;;22.60;1.00;;;;;;6253248;23;20376;-87
2022/08/26 05:49:05;;;;;;;22.67;8.97;;;22.50;1.00;;;;;;6227878;23;20455;-85
2022/08/26 05:51:33;;;;;;;16.40;8.80;;;22.50;1.00;;;;;;6254176;23;20384;-85
2022/08/26 05:54:01;;;;;;;10.17;8.53;;;22.60;1.00;;;;;;6227871;23;20738;-85
2022/08/26 05:56:27;;;;;;;11.53;8.90;;;22.50;1.00;;;;;;6227049;23;20397;-85
2022/08/26 05:58:55;;;;;;;10.20;9.07;;;22.50;1.00;;;;;;6227788;23;20394;-87
2022/08/26 06:01:27;;;;;;;13.03;7.53;;;22.50;1.00;;;;;;6227952;23;20389;-86
2022/08/26 06:03:56;;;;;;;11.37;8.27;;;22.50;1.00;;;;;;6254470;22;20403;-86
2022/08/26 06:06:33;;;;;;;13.63;8.30;;;22.50;1.00;;;;;;6226997;23;20424;-86
2022/08/26 06:09:00;;;;;;;15.33;8.77;;;22.50;1.00;;;;;;6227118;23;20420;-85
2022/08/26 06:11:27;;;;;;;9.97;7.90;;;22.50;8.30;;;;;;6256856;23;20373;-86
2022/08/26 06:13:54;;;;;;;12.17;7.13;;;22.40;99.90;;;;;;6225311;23;20491;-84
2022/08/26 06:16:22;;;;;;;9.63;7.13;;;22.40;99.90;;;;;;6224766;23;20385;-87
2022/08/26 06:18:49;;;;;;;14.70;6.93;;;22.40;99.90;;;;;;6226174;23;20387;-85
2022/08/26 06:21:18;;;;;;;11.33;6.47;;;22.40;99.90;;;;;;6254495;23;20380;-87
2022/08/26 06:26:30;;;;;;;11.07;7.27;;;22.30;99.90;;;;;;6254524;23;20419;-85
2022/08/26 06:28:57;;;;;;;9.37;6.63;;;22.40;99.90;;;;;;6228308;23;20430;-86
2022/08/26 06:31:24;;;;;;;11.50;6.80;;;22.40;99.90;;;;;;6229143;23;20378;-86
2022/08/26 06:33:50;;;;;;;12.83;6.67;;;22.50;99.90;;;;;;6228528;23;20480;-86
2022/08/26 06:36:24;;;;;;;16.60;5.70;;;22.50;99.90;;;;;;6229028;23;20452;-85
2022/08/26 06:38:51;;;;;;;8.67;6.07;;;22.50;99.90;;;;;;6257132;23;20365;-86
2022/08/26 06:41:19;;;;;;;5.97;5.00;;;22.50;99.90;;;;;;6254773;23;20898;-85
2022/08/26 06:43:45;;;;;;;16.00;6.10;;;22.50;68.80;;;;;;6226992;23;20429;-85
2022/08/26 06:46:13;;;;;;;9.20;5.00;;;22.60;1.00;;;;;;6227554;23;20463;-85
2022/08/26 06:48:39;;;;;;;10.67;4.97;;;22.60;1.00;;;;;;6229075;23;20246;-86
2022/08/26 06:51:29;;;;;;;7.53;5.23;;;22.60;1.00;;;;;;6257099;23;20451;-86
2022/08/26 06:53:58;;;;;;;11.50;5.50;;;22.70;1.00;;;;;;6255761;22;20405;-86
2022/08/26 06:56:26;;;;;;;8.53;4.73;;;22.70;99.90;;;;;;6229058;23;20733;-85
2022/08/26 06:58:53;;;;;;;11.10;5.77;;;22.80;99.90;;;;;;6230224;23;20624;-85
2022/08/26 07:01:29;;;;;;;11.03;5.80;;;22.80;99.90;;;;;;6227296;23;20381;-85
2022/08/26 07:03:57;;;;;;;5.17;4.67;;;22.80;99.90;;;;;;6226347;23;20511;-86
2022/08/26 07:06:24;;;;;;;7.90;5.00;;;22.80;99.90;;;;;;6252030;23;20385;-85
2022/08/26 07:08:52;;;;;;;9.67;5.27;;;22.90;90.10;;;;;;6253862;23;20421;-85
2022/08/26 07:11:19;;;;;;;10.63;5.37;;;23.00;1.00;;;;;;6252913;23;20388;-85
2022/08/26 07:13:46;;;;;;;9.20;5.03;;;23.10;99.90;;;;;;6226198;23;20405;-86
2022/08/26 07:16:14;;;;;;;12.03;5.60;;;23.20;99.90;;;;;;6253310;23;20423;-86
2022/08/26 07:18:41;;;;;;;11.77;5.43;;;23.20;1.00;;;;;;6225416;23;20709;-85
2022/08/26 07:21:09;;;;;;;12.50;6.03;;;23.30;1.00;;;;;;6227961;23;20455;-86
2022/08/26 07:23:35;;;;;;;14.33;6.07;;;23.30;1.00;;;;;;6227152;23;20421;-86
2022/08/26 07:26:10;;;;;;;10.77;5.43;;;23.30;99.90;;;;;;6254892;23;20438;-86
2022/08/26 07:28:37;;;;;;;9.63;5.50;;;23.30;99.90;;;;;;6227016;23;20417;-86
2022/08/26 07:31:04;;;;;;;5.63;4.53;;;23.30;99.90;;;;;;6253785;23;20374;-86
2022/08/26 07:33:29;;;;;;;7.60;5.00;;;23.40;99.90;;;;;;6254513;22;20403;-85
2022/08/26 07:35:55;;;;;;;10.77;5.20;;;23.30;99.90;;;;;;6252680;23;20711;-86
2022/08/26 07:38:21;;;;;;;7.83;4.63;;;23.30;99.90;;;;;;6225364;23;20155;-85
2022/08/26 07:40:46;;;;;;;9.07;4.63;;;23.30;99.90;;;;;;6225904;23;20212;-85
2022/08/26 07:43:12;;;;;;;11.27;4.73;;;23.30;99.90;;;;;;6225943;23;20253;-85
2022/08/26 07:45:38;;;;;;;9.17;4.67;;;23.40;99.90;;;;;;6226583;23;20170;-86
2022/08/26 07:48:04;;;;;;;7.63;4.63;;;23.40;90.40;;;;;;6225617;23;20211;-85
2022/08/26 07:50:29;;;;;;;9.80;4.80;;;23.40;17.50;;;;;;6252980;23;20257;-85
2022/08/26 07:52:55;;;;;;;7.77;4.47;;;23.30;20.40;;;;;;6251884;22;20824;-85
2022/08/26 07:55:21;;;;;;;7.20;4.17;;;23.30;79.90;;;;;;6252034;23;20158;-85
2022/08/26 07:57:47;;;;;;;7.83;4.60;;;23.40;50.40;;;;;;6226638;23;20166;-85
2022/08/26 08:00:15;;;;;;;7.07;4.40;;;23.50;1.00;;;;;;6225045;23;20386;-86
2022/08/26 08:02:42;;;;;;;7.70;4.27;;;23.60;1.00;;;;;;6251539;22;20172;-85
2022/08/26 08:05:08;;;;;;;6.10;4.90;;;23.60;1.00;;;;;;6226494;23;20400;-85
2022/08/26 08:07:33;;;;;;;6.47;3.97;;;23.60;1.00;;;;;;6225508;23;20482;-85
2022/08/26 08:09:59;;;;;;;6.80;4.47;;;23.50;1.00;;;;;;6225390;23;20425;-87
2022/08/26 08:12:24;;;;;;;7.27;4.27;;;23.60;1.00;;;;;;6252766;23;20158;-85
2022/08/26 08:14:51;;;;;;;6.30;4.53;;;23.70;99.90;;;;;;6225524;23;20186;-85
2022/08/26 08:17:16;;;;;;;7.87;4.10;;;23.80;99.90;;;;;;6226582;23;20509;-87
2022/08/26 08:19:42;;;;;;;7.80;4.87;;;23.90;99.90;;;;;;6257559;23;20400;-87
2022/08/26 08:22:08;;;;;;;6.07;3.70;;;24.00;99.90;;;;;;6225647;23;20168;-85
2022/08/26 08:24:34;;;;;;;10.00;3.97;;;24.10;7.50;;;;;;6226066;23;20505;-85
2022/08/26 08:27:01;;;;;;;7.40;4.30;;;24.20;1.00;;;;;;6224785;23;20402;-86
2022/08/26 08:29:30;;;;;;;8.43;4.23;;;24.30;1.00;;;;;;6225517;23;20214;-86
2022/08/26 08:31:56;;;;;;;10.50;5.87;;;24.60;1.00;;;;;;6223881;23;20384;-85
2022/08/26 08:34:27;;;;;;;11.57;5.27;;;24.80;99.90;;;;;;6224019;23;20409;-85
2022/08/26 08:36:53;;;;;;;7.30;5.17;;;24.90;99.90;;;;;;6223610;23;20373;-85
2022/08/26 08:39:26;;;;;;;7.57;4.00;;;25.00;99.90;;;;;;6226452;23;20400;-86
2022/08/26 08:42:19;;;;;;;8.23;4.77;;;25.00;99.90;;;;;;6254776;23;20357;-85
2022/08/26 08:44:47;;;;;;;9.93;4.60;;;25.00;99.90;;;;;;6256417;22;20411;-85
2022/08/26 08:47:41;;;;;;;10.67;7.40;;;25.10;55.40;;;;;;6228822;23;20400;-85
2022/08/26 08:50:20;;;;;;;11.20;5.60;;;25.10;1.00;;;;;;6239107;23;20433;-86
2022/08/26 08:52:53;;;;;;;6.43;5.33;;;25.20;1.00;;;;;;6227361;22;20679;-85
2022/08/26 08:55:19;;;;;;;10.03;5.53;;;25.40;1.00;;;;;;6227056;23;20377;-86
2022/08/26 08:57:48;;;;;;;8.40;4.80;;;25.60;1.00;;;;;;6226568;23;20383;-86
2022/08/26 09:00:17;;;;;;;10.10;5.00;;;25.70;1.00;;;;;;6253981;23;20156;-87
2022/08/26 09:02:57;;;;;;;9.33;5.47;;;25.70;1.00;;;;;;6227358;22;20395;-86
2022/08/26 09:05:26;;;;;;;7.73;3.70;;;25.70;1.00;;;;;;6254454;23;20367;-87
2022/08/26 09:07:58;;;;;;;9.80;4.07;;;25.60;1.00;;;;;;6253169;23;20728;-86
2022/08/26 09:10:36;;;;;;;11.97;3.60;;;25.50;1.00;;;;;;6226644;23;20418;-87
2022/08/26 09:13:08;;;;;;;8.60;3.20;;;25.30;1.00;;;;;;6227538;23;20847;-86
2022/08/26 09:15:58;;;;;;;11.10;4.27;;;25.20;1.00;;;;;;6227571;23;20385;-87
2022/08/26 09:18:38;;;;;;;6.80;4.30;;;25.10;1.00;;;;;;6226257;23;20375;-87
2022/08/26 09:21:06;;;;;;;10.57;3.80;;;25.10;1.00;;;;;;6226796;23;20369;-86
2022/08/26 09:23:35;;;;;;;4.97;3.53;;;25.30;1.00;;;;;;6226423;23;20441;-86
2022/08/26 09:26:12;;;;;;;9.73;3.27;;;25.40;1.00;;;;;;6253908;23;20699;-89
2022/08/26 09:28:41;;;;;;;7.47;4.10;;;25.40;1.00;;;;;;6226493;23;20433;-85
2022/08/26 09:31:22;;;;;;;7.57;3.30;;;25.30;1.00;;;;;;6227717;23;20447;-87
2022/08/26 09:34:02;;;;;;;5.70;3.70;;;25.30;1.00;;;;;;6253559;22;20405;-85
2022/08/26 09:36:34;;;;;;;7.77;4.00;;;25.30;1.00;;;;;;6251920;23;20362;-86
2022/08/26 09:38:59;;;;;;;5.47;3.97;;;25.30;1.00;;;;;;6252997;23;20448;-85
2022/08/26 09:41:32;;;;;;;6.07;3.67;;;25.20;1.00;;;;;;6226570;23;20471;-85
2022/08/26 09:44:14;;;;;;;7.17;3.50;;;25.10;1.00;;;;;;6253926;22;20198;-86
2022/08/26 09:46:51;;;;;;;5.63;3.43;;;25.00;1.00;;;;;;6225305;23;20949;-87
2022/08/26 09:49:30;;;;;;;12.73;4.17;;;24.90;1.00;;;;;;6225313;23;20452;-85
2022/08/26 09:52:12;;;;;;;7.63;3.33;;;24.80;1.00;;;;;;6252700;23;20357;-85
2022/08/26 09:54:38;;;;;;;7.70;3.50;;;24.70;1.00;;;;;;6226151;23;20476;-85
2022/08/26 09:57:17;;;;;;;9.10;3.70;;;24.70;1.00;;;;;;6252283;23;20878;-86
2022/08/26 09:59:43;;;;;;;10.77;4.67;;;24.60;1.00;;;;;;6226339;23;20399;-86
2022/08/26 10:02:25;;;;;;;7.63;4.20;;;24.60;1.00;;;;;;6226033;23;20391;-86
2022/08/26 10:04:56;;;;;;;10.03;3.70;;;24.60;4.20;;;;;;6226189;23;20416;-85
2022/08/26 10:07:47;;;;;;;9.37;3.80;;;24.60;17.00;;;;;;6224491;23;20412;-85
2022/08/26 10:10:37;;;;;;;7.17;4.57;;;24.70;10.40;;;;;;6225730;23;20966;-86
2022/08/26 10:13:14;;;;;;;6.10;4.10;;;24.70;1.00;;;;;;6252455;22;20874;-85
2022/08/26 10:15:57;;;;;;;6.30;3.50;;;24.70;1.00;;;;;;6226163;23;20368;-87
2022/08/26 10:18:30;;;;;;;6.33;4.10;;;24.60;1.00;;;;;;6225381;23;20373;-85
2022/08/26 10:21:22;;;;;;;6.50;4.03;;;24.50;9.80;;;;;;6225255;23;20377;-85
2022/08/26 10:23:52;;;;;;;10.03;3.90;;;24.50;21.60;;;;;;6252679;22;20424;-85
2022/08/26 10:26:39;;;;;;;8.43;4.20;;;24.60;22.10;;;;;;6225482;23;20366;-85
2022/08/26 10:29:14;;;;;;;7.60;3.00;;;24.70;5.60;;;;;;6253607;23;20793;-87
2022/08/26 10:31:47;;;;;;;9.00;3.53;;;24.80;1.00;;;;;;6262487;23;20389;-87
2022/08/26 10:34:15;;;;;;;7.20;3.30;;;24.80;1.00;;;;;;6263121;22;20460;-86
2022/08/26 10:36:51;;;;;;;9.70;3.70;;;24.90;1.00;;;;;;6261817;23;20416;-87
2022/08/26 10:39:22;;;;;;;9.43;3.93;;;25.10;1.00;;;;;;6262896;23;20441;-86
2022/08/26 10:41:50;;;;;;;9.30;3.27;;;25.30;1.00;;;;;;6235677;23;20447;-85
2022/08/26 10:44:18;;;;;;;9.70;3.70;;;25.40;1.00;;;;;;6234947;23;20494;-87
2022/08/26 10:46:50;;;;;;;5.03;3.20;;;25.60;1.00;;;;;;6262815;23;20378;-86
2022/08/26 10:49:16;;;;;;;7.53;3.17;;;25.70;1.00;;;;;;6262185;23;20742;-85
2022/08/26 10:51:58;;;;;;;6.47;2.77;;;25.80;1.00;;;;;;6236393;23;20385;-85
2022/08/26 10:54:29;;;;;;;5.33;2.40;;;25.90;1.00;;;;;;6261614;22;20399;-85
2022/08/26 10:57:10;;;;;;;11.30;3.40;;;26.00;1.00;;;;;;6260437;23;20371;-87
2022/08/26 10:59:54;;;;;;;7.80;3.50;;;26.10;1.00;;;;;;6235033;23;20386;-86
2022/08/26 11:02:47;;;;;;;9.50;4.00;;;26.00;1.00;;;;;;6235148;23;20375;-86
2022/08/26 11:05:22;;;;;;;8.20;4.13;;;26.00;1.00;;;;;;6256126;23;20379;-87
2022/08/26 11:07:55;;;;;;;7.57;3.23;;;25.90;1.00;;;;;;6251680;23;20389;-86
2022/08/26 11:10:21;;;;;;;8.63;3.60;;;25.80;1.00;;;;;;6254392;23;20409;-85
2022/08/26 11:13:00;;;;;;;8.20;4.13;;;25.60;1.00;;;;;;6227066;22;20410;-85
2022/08/26 11:15:26;;;;;;;6.17;4.00;;;25.50;1.00;;;;;;6227403;23;20391;-86
2022/08/26 11:17:54;;;;;;;7.27;4.60;;;25.30;1.00;;;;;;6225947;23;20412;-85
2022/08/26 11:20:22;;;;;;;7.43;4.40;;;25.20;1.00;;;;;;6251585;23;20455;-86
2022/08/26 11:22:53;;;;;;;9.07;4.30;;;25.10;1.00;;;;;;6226327;22;20396;-85
2022/08/26 11:25:22;;;;;;;9.10;3.67;;;25.00;1.00;;;;;;6224884;23;20390;-85
2022/08/26 11:27:49;;;;;;;5.97;3.97;;;25.10;1.00;;;;;;6225569;23;20389;-85
2022/08/26 11:30:15;;;;;;;7.33;3.13;;;25.00;1.00;;;;;;6226726;23;20430;-86
2022/08/26 11:32:40;;;;;;;8.23;3.77;;;24.90;1.00;;;;;;6225842;22;20409;-85
2022/08/26 11:35:10;;;;;;;9.70;3.63;;;24.80;1.00;;;;;;6225312;23;20158;-85
2022/08/26 11:37:38;;;;;;;6.43;3.83;;;24.90;1.00;;;;;;6224557;23;20158;-86
2022/08/26 11:40:12;;;;;;;8.53;3.83;;;24.90;1.00;;;;;;6225504;23;20460;-86
2022/08/26 11:42:45;;;;;;;6.03;3.50;;;24.80;1.00;;;;;;6252987;22;20366;-86
2022/08/26 11:45:38;;;;;;;5.80;3.40;;;24.80;1.00;;;;;;6252953;23;20393;-86
2022/08/26 11:48:18;;;;;;;8.10;3.33;;;24.80;1.00;;;;;;6225775;23;20382;-87
2022/08/26 11:50:53;;;;;;;6.00;3.70;;;24.80;1.00;;;;;;6227078;23;20826;-85
2022/08/26 11:53:19;;;;;;;6.30;3.60;;;24.90;1.00;;;;;;6252384;22;20423;-86
2022/08/26 11:55:46;;;;;;;11.27;3.07;;;24.90;1.00;;;;;;6224676;23;20380;-86
2022/08/26 11:58:13;;;;;;;8.27;4.23;;;25.00;1.00;;;;;;6224642;23;20915;-85
2022/08/26 12:00:45;;;;;;;10.90;3.67;;;25.10;1.00;;;;;;6251909;23;20405;-85
2022/08/26 12:03:17;;;;;;;7.43;3.60;;;25.10;1.00;;;;;;6250015;22;20400;-85
2022/08/26 12:05:45;;;;;;;9.50;3.53;;;25.20;1.00;;;;;;6251566;23;20393;-86
2022/08/26 12:08:15;;;;;;;8.33;3.07;;;25.30;1.00;;;;;;6223452;23;20436;-85
2022/08/26 12:10:41;;;;;;;6.13;3.10;;;25.30;1.00;;;;;;6226804;23;20381;-86
2022/08/26 12:13:24;;;;;;;3.87;2.43;;;25.20;1.00;;;;;;6227341;23;20927;-85
2022/08/26 12:15:58;;;;;;;6.63;3.07;;;25.00;1.00;;;;;;6226585;23;20372;-86
2022/08/26 12:18:32;;;;;;;8.37;3.00;;;24.90;1.00;;;;;;6256508;23;20374;-87
2022/08/26 12:21:11;;;;;;;6.70;3.43;;;24.80;1.00;;;;;;6231573;23;20439;-87
2022/08/26 12:23:42;;;;;;;7.47;3.27;;;24.70;1.00;;;;;;6226225;23;20437;-87
2022/08/26 12:26:30;;;;;;;6.10;3.17;;;24.60;1.00;;;;;;6227798;23;20448;-86
2022/08/26 12:29:01;;;;;;;6.70;3.23;;;24.70;1.00;;;;;;6255114;23;21093;-86
2022/08/26 12:31:34;;;;;;;9.63;3.00;;;24.80;1.00;;;;;;6230809;23;20684;-86
2022/08/26 12:34:03;;;;;;;7.70;3.30;;;24.90;1.00;;;;;;6256139;22;20401;-86
2022/08/26 12:36:32;;;;;;;7.57;3.20;;;24.90;1.00;;;;;;6230355;23;20728;-86
2022/08/26 12:39:10;;;;;;;5.97;2.60;;;25.00;1.00;;;;;;6236267;23;20428;-87
2022/08/26 12:41:43;;;;;;;8.30;2.83;;;24.90;1.00;;;;;;6233296;23;20480;-85
2022/08/26 12:44:33;;;;;;;5.17;2.83;;;24.90;1.00;;;;;;6248737;22;20417;-86
2022/08/26 12:47:24;;;;;;;8.53;3.43;;;24.80;1.00;;;;;;6224215;23;20483;-86
2022/08/26 12:50:04;;;;;;;5.87;2.57;;;24.70;1.00;;;;;;6210388;23;20429;-87
2022/08/26 12:52:33;;;;;;;6.50;3.23;;;24.70;1.00;;;;;;6224163;23;20423;-86
2022/08/26 12:55:01;;;;;;;17.80;3.97;;;24.60;1.00;;;;;;6225161;23;20405;-85
2022/08/26 12:57:31;;;;;;;8.20;3.10;;;24.50;1.00;;;;;;6227264;23;20392;-86
2022/08/26 13:00:29;;;;;;;5.93;2.63;;;24.40;1.00;;;;;;6229548;23;20461;-85
2022/08/26 13:02:55;;;;;;;12.63;3.37;;;24.40;1.00;;;;;;6227404;22;20436;-85